Time;durP1;ratioP1;P1;durP2;ratioP2;P2;SDS_P1;SDS_P2;PMS_P1;PMS_P2;Temp;Humidity;BMP_temperature;BMP_pressure;BME280_temperature;BME280_humidity;BME280_pressure;Samples;Min_cycle;Max_cycle;Signal;HPM_P1;HPM_P2
2023/11/24 00:01:03;;;;;;;5.80;3.50;;;;;;;3.46;86.37;96518.51;105467;1255;61160;-25
2023/11/24 00:03:32;;;;;;;3.90;2.60;;;;;;;3.29;87.21;96517.60;105548;1267;61147;-25
2023/11/24 00:05:59;;;;;;;3.50;2.60;;;;;;;3.15;88.08;96515.09;105827;1256;72283;-24
2023/11/24 00:08:26;;;;;;;5.40;3.20;;;;;;;3.33;88.03;96516.36;105925;1256;74309;-25
2023/11/24 00:10:54;;;;;;;4.00;2.40;;;;;;;3.63;86.52;96510.66;105848;1257;72678;-25
2023/11/24 00:13:22;;;;;;;6.70;3.30;;;;;;;3.68;86.10;96514.00;105592;1252;61172;-25
2023/11/24 00:15:51;;;;;;;3.60;1.90;;;;;;;3.45;87.02;96517.67;105323;1254;61138;-24
2023/11/24 00:18:21;;;;;;;3.50;2.30;;;;;;;3.24;87.90;96509.50;105615;1260;73826;-24
2023/11/24 00:20:48;;;;;;;3.20;2.20;;;;;;;3.45;87.78;96510.83;105795;1256;74386;-24
2023/11/24 00:23:15;;;;;;;3.40;2.30;;;;;;;3.69;86.50;96512.89;105589;1256;72456;-25
2023/11/24 00:25:42;;;;;;;12.60;3.30;;;;;;;3.70;86.51;96511.55;105695;1254;61134;-24
2023/11/24 00:28:10;;;;;;;4.50;2.70;;;;;;;3.59;86.71;96506.80;105865;1256;61058;-24
2023/11/24 00:30:37;;;;;;;4.00;2.40;;;;;;;3.32;87.91;96498.93;105882;1256;73864;-24
2023/11/24 00:33:04;;;;;;;3.30;2.10;;;;;;;3.53;87.94;96500.80;105885;1254;74224;-25
2023/11/24 00:35:33;;;;;;;3.20;2.00;;;;;;;3.83;86.23;96503.38;105943;1257;72390;-25
2023/11/24 00:38:02;;;;;;;2.90;2.10;;;;;;;3.69;86.18;96488.14;105685;1260;61195;-25
2023/11/24 00:40:30;;;;;;;4.90;3.00;;;;;;;3.45;87.44;96483.21;105889;1257;61170;-25
2023/11/24 00:42:57;;;;;;;3.60;2.60;;;;;;;3.33;87.84;96482.41;105660;1260;73624;-25
2023/11/24 00:45:25;;;;;;;4.10;2.50;;;;;;;3.74;86.75;96486.91;105587;1260;74087;-25
2023/11/24 00:47:53;;;;;;;4.00;2.60;;;;;;;3.87;85.47;96481.70;105798;1254;72447;-26
2023/11/24 00:50:20;;;;;;;4.40;2.80;;;;;;;3.75;85.59;96484.17;105354;1252;61061;-26
2023/11/24 00:52:47;;;;;;;5.30;3.20;;;;;;;3.45;86.62;96473.27;105838;1253;61227;-26
2023/11/24 00:55:14;;;;;;;4.10;3.00;;;;;;;3.37;87.33;96469.36;105647;1254;73560;-26
2023/11/24 00:57:41;;;;;;;3.40;2.30;;;;;;;3.63;85.98;96459.68;105764;1256;74333;-26
2023/11/24 01:00:10;;;;;;;4.80;2.50;;;;;;;3.80;84.74;96445.77;105588;1254;72939;-26
2023/11/24 01:02:37;;;;;;;3.10;2.60;;;;;;;3.67;84.82;96431.45;105599;1255;61071;-26
2023/11/24 01:05:08;;;;;;;4.50;2.90;;;;;;;3.48;85.61;96440.86;105719;1253;61106;-26
2023/11/24 01:07:35;;;;;;;3.00;2.30;;;;;;;3.52;86.09;96446.59;105705;1259;73629;-27
2023/11/24 01:10:02;;;;;;;3.10;2.20;;;;;;;3.84;84.59;96448.81;105694;1260;72545;-26
2023/11/24 01:12:31;;;;;;;4.00;3.00;;;;;;;3.88;83.77;96439.71;105456;1254;71420;-26
2023/11/24 01:14:58;;;;;;;3.70;2.30;;;;;;;3.76;84.34;96445.70;105739;1254;61250;-26
2023/11/24 01:17:26;;;;;;;3.20;2.50;;;;;;;3.58;85.35;96444.44;105578;1260;61099;-26
2023/11/24 01:19:53;;;;;;;2.90;2.10;;;;;;;3.50;86.00;96445.52;105635;1260;72730;-26
2023/11/24 01:22:24;;;;;;;5.00;2.60;;;;;;;3.86;84.66;96441.27;105683;1259;74362;-26
2023/11/24 01:24:51;;;;;;;3.50;2.60;;;;;;;3.91;84.19;96432.21;105617;1256;72448;-26
2023/11/24 01:27:18;;;;;;;3.30;2.50;;;;;;;3.80;84.68;96434.84;105545;1254;62846;-27
2023/11/24 01:29:45;;;;;;;5.90;3.00;;;;;;;3.49;86.13;96426.02;105557;1256;61109;-26
2023/11/24 01:32:12;;;;;;;2.90;2.20;;;;;;;3.47;86.90;96428.36;105600;1254;72762;-26
2023/11/24 01:34:39;;;;;;;3.90;2.80;;;;;;;3.85;85.51;96424.61;105815;1258;74291;-26
2023/11/24 01:37:07;;;;;;;5.20;3.20;;;;;;;3.99;84.43;96424.48;105785;1254;72615;-26
2023/11/24 01:39:34;;;;;;;2.50;2.00;;;;;;;3.85;84.77;96415.00;105795;1254;61041;-29
2023/11/24 01:42:01;;;;;;;3.20;2.50;;;;;;;3.63;86.13;96423.25;105571;1257;61138;-26
2023/11/24 01:44:28;;;;;;;5.10;3.50;;;;;;;3.55;86.88;96407.82;105568;1254;73828;-26
2023/11/24 01:46:55;;;;;;;3.50;2.40;;;;;;;3.93;85.44;96414.52;105720;1254;74336;-26
2023/11/24 01:49:23;;;;;;;4.40;2.30;;;;;;;4.00;84.49;96398.11;105917;1254;72483;-26
2023/11/24 01:51:51;;;;;;;3.60;2.40;;;;;;;3.97;85.06;96409.56;105671;1260;61182;-26
2023/11/24 01:54:18;;;;;;;5.70;2.80;;;;;;;3.73;85.80;96398.05;105721;1252;61096;-26
2023/11/24 01:56:45;;;;;;;5.10;2.50;;;;;;;3.62;86.95;96390.66;105749;1258;73785;-27
2023/11/24 01:59:13;;;;;;;6.30;3.40;;;;;;;3.87;86.35;96378.01;105478;1260;73325;-26
2023/11/24 02:01:41;;;;;;;4.20;2.70;;;;;;;4.04;85.32;96382.95;105703;1255;72421;-26
2023/11/24 02:04:08;;;;;;;4.80;2.70;;;;;;;3.92;85.80;96373.30;105480;1254;61146;-26
2023/11/24 02:06:35;;;;;;;3.70;2.60;;;;;;;3.67;87.28;96386.08;105800;1256;61198;-26
2023/11/24 02:09:02;;;;;;;3.30;2.30;;;;;;;3.56;88.61;96393.66;105533;1260;73674;-26
2023/11/24 02:11:29;;;;;;;2.60;2.10;;;;;;;3.85;87.73;96398.52;105516;1259;74298;-26
2023/11/24 02:13:57;;;;;;;7.20;3.10;;;;;;;3.96;86.83;96389.02;105647;1254;72466;-26
2023/11/24 02:16:24;;;;;;;5.40;3.20;;;;;;;3.95;86.77;96385.48;105387;1255;61027;-26
2023/11/24 02:18:51;;;;;;;4.80;3.10;;;;;;;3.80;87.38;96381.61;105558;1259;61128;-26
2023/11/24 02:21:19;;;;;;;3.70;2.30;;;;;;;3.59;88.76;96383.74;105588;1254;73670;-26
2023/11/24 02:23:46;;;;;;;3.90;2.50;;;;;;;3.94;87.65;96380.06;105577;1261;74861;-27
2023/11/24 02:26:14;;;;;;;5.50;2.90;;;;;;;4.09;86.52;96375.05;105661;1254;72333;-27
2023/11/24 02:28:42;;;;;;;3.20;2.80;;;;;;;4.09;86.58;96371.98;105484;1259;61496;-26
2023/11/24 02:31:11;;;;;;;3.50;2.60;;;;;;;3.89;87.31;96362.58;105562;1254;61186;-26
2023/11/24 02:33:40;;;;;;;5.10;2.90;;;;;;;3.67;88.59;96365.13;105600;1254;74281;-26
2023/11/24 02:36:17;;;;;;;4.80;3.30;;;;;;;3.88;88.01;96351.48;105663;1254;74192;-26
2023/11/24 02:38:49;;;;;;;3.90;2.70;;;;;;;4.09;86.40;96350.80;105562;1254;72628;-26
2023/11/24 02:41:16;;;;;;;3.40;2.70;;;;;;;4.01;86.33;96341.00;105678;1255;61081;-26
2023/11/24 02:43:44;;;;;;;3.60;2.60;;;;;;;3.89;87.04;96349.17;105606;1260;61205;-26
2023/11/24 02:46:15;;;;;;;3.80;2.60;;;;;;;3.75;88.11;96358.58;105726;1258;73662;-26
2023/11/24 02:48:43;;;;;;;5.40;2.80;;;;;;;3.96;87.53;96351.09;105570;1260;73207;-27
2023/11/24 02:51:11;;;;;;;7.10;3.80;;;;;;;4.28;85.75;96341.44;105376;1260;71680;-27
2023/11/24 02:53:39;;;;;;;5.70;3.20;;;;;;;4.28;85.34;96346.27;105579;1254;61249;-27
2023/11/24 02:56:07;;;;;;;3.90;2.70;;;;;;;4.06;86.32;96333.98;105707;1258;61157;-26
2023/11/24 02:58:36;;;;;;;5.30;2.90;;;;;;;3.80;87.40;96330.71;105740;1254;74008;-26
2023/11/24 03:01:05;;;;;;;5.30;3.00;;;;;;;4.03;87.18;96325.71;105726;1254;74175;-27
2023/11/24 03:03:32;;;;;;;4.90;3.10;;;;;;;4.26;85.73;96314.52;105685;1254;72651;-26
2023/11/24 03:06:05;;;;;;;5.00;2.70;;;;;;;4.18;85.84;96296.75;105814;1257;61129;-26
2023/11/24 03:08:33;;;;;;;4.80;3.40;;;;;;;4.00;86.39;96284.24;105646;1254;61173;-25
2023/11/24 03:11:05;;;;;;;5.40;2.60;;;;;;;3.80;87.47;96286.70;105610;1254;73624;-26
2023/11/24 03:13:33;;;;;;;4.60;2.70;;;;;;;4.06;86.99;96290.49;105656;1257;74363;-26
2023/11/24 03:16:03;;;;;;;3.30;2.30;;;;;;;4.34;85.48;96282.30;105835;1253;71514;-27
2023/11/24 03:18:30;;;;;;;4.80;3.30;;;;;;;4.22;85.11;96270.30;105374;1254;61157;-27
2023/11/24 03:20:57;;;;;;;4.60;3.20;;;;;;;4.08;85.92;96272.16;105818;1256;61186;-27
2023/11/24 03:23:24;;;;;;;5.30;2.40;;;;;;;3.88;86.99;96266.40;105657;1254;73942;-27
2023/11/24 03:25:51;;;;;;;3.20;2.40;;;;;;;4.09;86.54;96275.28;105814;1254;74445;-27
2023/11/24 03:28:19;;;;;;;5.30;2.70;;;;;;;4.30;84.91;96263.92;105861;1254;73265;-26
2023/11/24 03:30:46;;;;;;;4.60;2.60;;;;;;;4.21;85.22;96247.85;105663;1252;61153;-27
2023/11/24 03:33:15;;;;;;;3.70;2.50;;;;;;;4.06;85.56;96227.66;105596;1258;61144;-26
2023/11/24 03:35:41;;;;;;;5.80;3.00;;;;;;;3.88;86.60;96220.08;105679;1259;73655;-26
2023/11/24 03:38:08;;;;;;;4.10;2.70;;;;;;;4.22;86.05;96206.55;105901;1256;74294;-26
2023/11/24 03:40:35;;;;;;;5.10;3.40;;;;;;;4.46;84.65;96196.35;105926;1254;72703;-26
2023/11/24 03:43:02;;;;;;;3.90;2.20;;;;;;;4.40;84.37;96176.92;105837;1254;61166;-27
2023/11/24 03:45:30;;;;;;;5.50;3.20;;;;;;;4.20;85.29;96135.15;105750;1260;61253;-26
2023/11/24 03:47:58;;;;;;;4.00;2.80;;;;;;;3.94;86.27;96161.09;105711;1254;73840;-26
2023/11/24 03:50:25;;;;;;;4.50;3.00;;;;;;;4.07;85.93;96163.45;105650;1254;74853;-26
2023/11/24 03:52:53;;;;;;;4.30;2.70;;;;;;;4.39;84.63;96183.20;105692;1254;72643;-26
2023/11/24 03:55:20;;;;;;;5.70;3.60;;;;;;;4.26;84.43;96157.69;105470;1254;61216;-27
2023/11/24 03:57:47;;;;;;;4.70;3.00;;;;;;;4.01;85.37;96162.75;105698;1257;61218;-26
2023/11/24 04:00:16;;;;;;;4.50;3.40;;;;;;;4.01;86.34;96148.55;105511;1254;73720;-26
2023/11/24 04:02:44;;;;;;;4.60;3.30;;;;;;;4.20;85.10;96159.02;105662;1254;73167;-26
2023/11/24 04:05:11;;;;;;;3.20;2.60;;;;;;;4.27;84.98;96169.77;105700;1260;72458;-27
2023/11/24 04:07:39;;;;;;;4.00;2.50;;;;;;;4.21;84.97;96171.25;105712;1254;61108;-26
2023/11/24 04:10:07;;;;;;;3.80;2.40;;;;;;;3.99;86.11;96175.83;105605;1256;61748;-27
2023/11/24 04:12:34;;;;;;;6.00;3.20;;;;;;;4.11;86.24;96177.98;105706;1256;73816;-27
2023/11/24 04:15:03;;;;;;;4.00;3.30;;;;;;;4.39;85.03;96194.21;105626;1259;74356;-27
2023/11/24 04:17:30;;;;;;;5.80;3.00;;;;;;;4.36;84.64;96192.66;105348;1260;72602;-27
2023/11/24 04:19:57;;;;;;;5.00;3.30;;;;;;;4.18;85.32;96190.47;105524;1254;61105;-27
2023/11/24 04:22:25;;;;;;;3.90;2.90;;;;;;;4.15;86.26;96189.70;105586;1259;61090;-27
2023/11/24 04:24:53;;;;;;;3.80;2.50;;;;;;;4.49;84.75;96180.13;105887;1254;73699;-27
2023/11/24 04:27:20;;;;;;;4.90;2.80;;;;;;;4.59;83.89;96172.23;105751;1254;74297;-27
2023/11/24 04:29:47;;;;;;;3.80;2.50;;;;;;;4.45;84.49;96195.65;105895;1253;72612;-27
2023/11/24 04:32:14;;;;;;;3.80;2.40;;;;;;;4.32;85.44;96205.23;105909;1253;61046;-27
2023/11/24 04:34:41;;;;;;;3.40;2.50;;;;;;;4.40;85.52;96204.90;105937;1254;61185;-27
2023/11/24 04:37:08;;;;;;;3.20;2.10;;;;;;;4.64;84.14;96197.89;105930;1254;73784;-28
2023/11/24 04:39:36;;;;;;;3.50;2.60;;;;;;;4.62;83.87;96199.73;105866;1254;74374;-27
2023/11/24 04:42:03;;;;;;;5.00;2.70;;;;;;;4.46;84.53;96196.20;105788;1254;72703;-27
2023/11/24 04:44:31;;;;;;;2.90;1.90;;;;;;;4.35;85.12;96203.21;105528;1254;61062;-27
2023/11/24 04:46:59;;;;;;;3.40;2.00;;;;;;;4.43;84.81;96192.02;105585;1259;61107;-28
2023/11/24 04:49:27;;;;;;;3.50;2.40;;;;;;;4.79;83.50;96205.98;105705;1254;73733;-27
2023/11/24 04:51:54;;;;;;;3.50;2.50;;;;;;;4.67;83.06;96192.38;105851;1254;74633;-27
2023/11/24 04:54:21;;;;;;;3.90;2.50;;;;;;;4.52;83.59;96216.77;105833;1254;72357;-27
2023/11/24 04:56:48;;;;;;;3.90;2.50;;;;;;;4.35;84.48;96216.03;105532;1254;61035;-27
2023/11/24 04:59:15;;;;;;;5.30;2.40;;;;;;;4.55;84.17;96215.80;105647;1259;61147;-27
2023/11/24 05:01:42;;;;;;;2.70;2.20;;;;;;;4.85;82.67;96214.33;105828;1257;73872;-27
2023/11/24 05:04:10;;;;;;;3.90;2.10;;;;;;;4.86;81.93;96198.86;105674;1258;74318;-28
2023/11/24 05:06:38;;;;;;;2.60;1.90;;;;;;;4.66;82.97;96204.82;105940;1256;71061;-27
2023/11/24 05:09:05;;;;;;;2.70;2.10;;;;;;;4.50;83.99;96203.87;105915;1253;61156;-27
2023/11/24 05:11:32;;;;;;;3.30;2.00;;;;;;;4.70;83.49;96191.09;105866;1252;61095;-27
2023/11/24 05:13:59;;;;;;;5.00;2.80;;;;;;;5.00;81.67;96198.78;105897;1254;74272;-27
2023/11/24 05:16:26;;;;;;;3.00;1.70;;;;;;;4.94;81.26;96173.65;105912;1254;73308;-27
2023/11/24 05:18:54;;;;;;;2.80;2.00;;;;;;;4.83;81.61;96175.95;105900;1254;72706;-28
2023/11/24 05:21:21;;;;;;;2.80;1.80;;;;;;;4.58;82.71;96169.04;105524;1255;61189;-27
2023/11/24 05:23:48;;;;;;;2.80;1.70;;;;;;;4.71;82.53;96165.16;105625;1257;61169;-27
2023/11/24 05:26:15;;;;;;;3.00;2.10;;;;;;;4.98;81.05;96162.02;105632;1254;73757;-28
2023/11/24 05:28:43;;;;;;;2.00;1.60;;;;;;;5.03;80.38;96146.73;105852;1256;74255;-27
2023/11/24 05:31:12;;;;;;;2.60;1.70;;;;;;;4.92;80.63;96157.83;105485;1254;72527;-28
2023/11/24 05:33:39;;;;;;;4.30;1.80;;;;;;;4.68;81.75;96160.84;105533;1254;61219;-28
2023/11/24 05:36:09;;;;;;;3.00;1.70;;;;;;;4.87;81.91;96172.30;105580;1255;61220;-28
2023/11/24 05:38:39;;;;;;;2.50;1.60;;;;;;;5.15;80.29;96176.41;105435;1254;72825;-28
2023/11/24 05:41:07;;;;;;;2.70;1.90;;;;;;;5.06;80.46;96175.19;105640;1254;74329;-28
2023/11/24 05:43:35;;;;;;;2.50;2.10;;;;;;;4.91;81.13;96181.85;105545;1254;72738;-29
2023/11/24 05:46:02;;;;;;;2.80;2.20;;;;;;;4.70;82.14;96179.89;105737;1252;61074;-28
2023/11/24 05:48:29;;;;;;;4.40;2.00;;;;;;;4.81;82.50;96196.95;105563;1254;61209;-28
2023/11/24 05:50:58;;;;;;;2.50;1.60;;;;;;;5.04;81.06;96184.63;105781;1254;73820;-29
2023/11/24 05:53:25;;;;;;;4.30;1.80;;;;;;;5.01;80.82;96198.20;105624;1254;74199;-28
2023/11/24 05:55:53;;;;;;;2.20;1.60;;;;;;;4.90;81.31;96198.34;105530;1254;73282;-28
2023/11/24 05:58:21;;;;;;;2.30;1.60;;;;;;;4.69;82.36;96199.96;105560;1254;61052;-28
2023/11/24 06:00:49;;;;;;;2.00;1.50;;;;;;;4.73;81.80;96192.94;105855;1256;61176;-28
2023/11/24 06:03:16;;;;;;;2.30;1.20;;;;;;;5.09;80.34;96202.20;105740;1256;73712;-29
2023/11/24 06:05:44;;;;;;;1.90;1.50;;;;;;;5.07;79.74;96195.52;105693;1258;74198;-28
2023/11/24 06:08:11;;;;;;;2.00;1.30;;;;;;;4.94;80.10;96211.80;105911;1253;72450;-28
2023/11/24 06:10:38;;;;;;;3.80;1.80;;;;;;;4.76;80.80;96212.92;105838;1252;61031;-28
2023/11/24 06:13:06;;;;;;;1.70;1.40;;;;;;;4.65;80.91;96205.81;105692;1252;61169;-28
2023/11/24 06:15:33;;;;;;;2.50;1.40;;;;;;;4.96;79.18;96198.73;105729;1254;73668;-28
2023/11/24 06:18:00;;;;;;;2.90;1.30;;;;;;;4.98;78.59;96220.18;105688;1253;75140;-28
2023/11/24 06:20:28;;;;;;;1.60;1.30;;;;;;;4.90;79.30;96232.70;105571;1254;72473;-28
2023/11/24 06:22:55;;;;;;;1.70;1.40;;;;;;;4.63;79.65;96221.80;105889;1254;61066;-28
2023/11/24 06:25:22;;;;;;;2.40;1.10;;;;;;;4.56;80.15;96226.13;105802;1256;61137;-28
2023/11/24 06:27:50;;;;;;;2.90;1.50;;;;;;;4.82;78.39;96208.20;105345;1254;73855;-28
2023/11/24 06:30:17;;;;;;;4.00;1.20;;;;;;;4.92;77.08;96208.60;105737;1254;74368;-28
2023/11/24 06:32:44;;;;;;;1.70;1.00;;;;;;;4.83;76.96;96201.28;105829;1253;72698;-29
2023/11/24 06:35:11;;;;;;;2.30;1.50;;;;;;;4.73;77.24;96215.49;105544;1254;61054;-28
2023/11/24 06:37:40;;;;;;;1.10;0.90;;;;;;;4.50;78.28;96221.61;105550;1253;61055;-28
2023/11/24 06:40:11;;;;;;;1.40;0.80;;;;;;;4.64;77.50;96214.22;105515;1254;73831;-28
2023/11/24 06:42:40;;;;;;;4.20;0.90;;;;;;;4.93;75.37;96210.14;105433;1259;74029;-27
2023/11/24 06:45:09;;;;;;;2.40;1.00;;;;;;;4.97;74.64;96212.70;105705;1259;71436;-27
2023/11/24 06:47:39;;;;;;;2.90;1.20;;;;;;;4.87;74.99;96212.64;105703;1253;61179;-27
2023/11/24 06:50:12;;;;;;;1.00;0.70;;;;;;;4.69;75.49;96218.11;105821;1257;61157;-28
2023/11/24 06:52:40;;;;;;;1.20;0.60;;;;;;;4.56;76.11;96219.42;105480;1254;74601;-28
2023/11/24 06:55:08;;;;;;;1.50;0.50;;;;;;;4.78;75.40;96215.50;105689;1254;74446;-27
2023/11/24 06:57:35;;;;;;;1.10;0.70;;;;;;;5.10;73.83;96220.48;105734;1254;72576;-28
2023/11/24 07:00:05;;;;;;;1.00;0.60;;;;;;;5.03;73.66;96222.94;105737;1254;61081;-27
2023/11/24 07:02:33;;;;;;;0.60;0.60;;;;;;;4.89;73.98;96211.83;105737;1252;61147;-28
2023/11/24 07:05:04;;;;;;;2.40;0.90;;;;;;;4.78;74.34;96222.54;105718;1254;73834;-28
2023/11/24 07:07:31;;;;;;;1.80;0.80;;;;;;;4.66;74.96;96218.27;105761;1254;74151;-28
2023/11/24 07:09:59;;;;;;;1.10;0.70;;;;;;;4.64;73.66;96178.78;105698;1260;72361;-28
2023/11/24 07:12:26;;;;;;;0.40;0.40;;;;;;;4.98;72.83;96224.98;105949;1254;61034;-28
2023/11/24 07:14:53;;;;;;;0.80;0.60;;;;;;;5.14;72.56;96228.13;105894;1257;61062;-28
2023/11/24 07:17:20;;;;;;;0.90;0.80;;;;;;;5.01;72.88;96221.73;105826;1254;73841;-26
2023/11/24 07:19:47;;;;;;;1.40;0.70;;;;;;;4.82;73.07;96210.44;105976;1254;74682;-27
2023/11/24 07:22:14;;;;;;;1.10;0.70;;;;;;;4.66;72.59;96208.84;105703;1254;72522;-26
2023/11/24 07:24:42;;;;;;;1.60;0.90;;;;;;;4.62;73.47;96211.16;105507;1254;61223;-26
2023/11/24 07:27:10;;;;;;;1.00;0.70;;;;;;;4.59;74.04;96213.46;105783;1254;61106;-27
2023/11/24 07:29:37;;;;;;;0.80;0.50;;;;;;;5.00;73.68;96218.77;105827;1254;74220;-27
2023/11/24 07:32:05;;;;;;;0.60;0.50;;;;;;;5.13;73.43;96233.35;105907;1254;74353;-29
2023/11/24 07:34:32;;;;;;;1.00;0.80;;;;;;;5.01;74.16;96225.86;105688;1254;72777;-27
2023/11/24 07:37:02;;;;;;;1.30;0.60;;;;;;;4.72;76.29;96218.36;105737;1254;61135;-27
2023/11/24 07:39:30;;;;;;;0.70;0.50;;;;;;;4.56;77.57;96224.09;102864;1260;3780823;-27
2023/11/24 07:41:58;;;;;;;0.40;0.40;;;;;;;4.48;78.53;96227.77;105865;1254;61135;-27
2023/11/24 07:44:31;;;;;;;1.10;0.60;;;;;;;4.76;78.54;96229.07;105714;1254;74365;-27
2023/11/24 07:46:58;;;;;;;1.00;0.50;;;;;;;4.93;78.01;96243.67;105623;1253;72479;-27
2023/11/24 07:49:25;;;;;;;1.10;0.70;;;;;;;4.68;78.39;96241.39;105806;1254;61185;-26
2023/11/24 07:51:52;;;;;;;2.00;0.70;;;;;;;4.30;78.70;96207.29;105859;1252;61135;-28
2023/11/24 07:54:20;;;;;;;1.60;0.50;;;;;;;3.99;81.57;96228.87;105631;1254;73770;-28
2023/11/24 07:56:47;;;;;;;0.40;0.40;;;;;;;4.01;83.53;96247.23;105623;1254;74159;-28
2023/11/24 07:59:15;;;;;;;0.40;0.40;;;;;;;4.38;81.73;96229.86;105642;1253;72739;-28
2023/11/24 08:01:42;;;;;;;2.00;0.50;;;;;;;4.24;82.06;96240.89;105575;1252;61072;-28
2023/11/24 08:04:09;;;;;;;0.50;0.50;;;;;;;3.98;81.57;96241.69;105555;1259;61136;-28
2023/11/24 08:06:38;;;;;;;0.70;0.50;;;;;;;3.82;82.10;96244.52;105625;1254;73544;-27
2023/11/24 08:09:08;;;;;;;0.30;0.30;;;;;;;3.60;82.12;96252.45;105569;1254;74445;-27
2023/11/24 08:11:35;;;;;;;0.50;0.40;;;;;;;3.88;80.90;96254.52;105508;1254;72540;-27
2023/11/24 08:14:02;;;;;;;0.40;0.30;;;;;;;4.12;79.21;96266.90;105716;1253;61115;-25
2023/11/24 08:16:29;;;;;;;0.80;0.50;;;;;;;4.17;78.66;96266.60;105725;1259;62189;-25
2023/11/24 08:18:57;;;;;;;0.60;0.40;;;;;;;4.21;79.11;96266.37;105885;1254;73514;-26
2023/11/24 08:21:24;;;;;;;2.00;0.50;;;;;;;4.31;78.55;96270.61;105901;1254;74122;-26
2023/11/24 08:23:51;;;;;;;1.70;0.70;;;;;;;4.34;77.66;96255.02;105923;1253;72465;-27
2023/11/24 08:26:18;;;;;;;0.60;0.50;;;;;;;4.41;76.73;96263.73;105662;1254;61080;-27
2023/11/24 08:28:46;;;;;;;3.60;0.50;;;;;;;4.65;76.28;96256.88;105875;1256;61051;-26
2023/11/24 08:31:20;;;;;;;0.70;0.70;;;;;;;4.75;76.43;96259.48;105882;1254;75575;-27
2023/11/24 08:33:48;;;;;;;1.10;0.40;;;;;;;5.02;76.40;96266.84;105658;1256;74809;-27
2023/11/24 08:36:15;;;;;;;2.30;0.60;;;;;;;5.26;75.71;96259.23;105433;1260;73348;-27
2023/11/24 08:38:42;;;;;;;1.10;0.60;;;;;;;5.24;73.91;96246.52;105757;1257;61837;-27
2023/11/24 08:41:10;;;;;;;0.50;0.40;;;;;;;5.19;74.75;96242.14;105917;1257;61093;-26
2023/11/24 08:43:37;;;;;;;1.80;0.60;;;;;;;4.96;74.95;96242.88;105679;1254;73639;-27
2023/11/24 08:46:07;;;;;;;0.60;0.50;;;;;;;4.88;75.63;96241.95;105858;1254;74314;-27
2023/11/24 08:48:35;;;;;;;1.00;0.50;;;;;;;4.93;76.65;96252.65;105698;1254;72666;-27
2023/11/24 08:51:04;;;;;;;1.10;0.40;;;;;;;4.82;76.11;96233.19;105742;1254;61385;-27
2023/11/24 08:53:33;;;;;;;1.00;0.60;;;;;;;4.62;77.35;96256.19;105647;1254;62121;-27
2023/11/24 08:56:04;;;;;;;1.30;0.60;;;;;;;4.61;79.56;96263.48;105905;1253;75743;-27
2023/11/24 08:58:31;;;;;;;0.80;0.40;;;;;;;4.85;78.67;96263.80;105647;1254;74177;-27
2023/11/24 09:00:58;;;;;;;2.50;0.90;;;;;;;4.67;80.33;96266.59;105708;1254;72544;-27
2023/11/24 09:03:26;;;;;;;0.90;0.50;;;;;;;4.47;80.94;96263.00;105697;1254;61897;-27
2023/11/24 09:05:57;;;;;;;0.70;0.40;;;;;;;4.10;82.86;96269.23;105918;1256;61991;-27
2023/11/24 09:08:25;;;;;;;2.50;0.60;;;;;;;3.95;85.00;96286.63;105703;1253;73825;-27
2023/11/24 09:10:52;;;;;;;1.70;0.70;;;;;;;4.23;85.05;96280.17;105706;1254;74308;-27
2023/11/24 09:13:20;;;;;;;2.30;0.80;;;;;;;4.58;83.41;96278.16;105718;1253;73316;-27
2023/11/24 09:15:48;;;;;;;2.80;0.70;;;;;;;4.50;83.52;96288.55;105927;1257;61150;-27
2023/11/24 09:18:15;;;;;;;0.70;0.40;;;;;;;4.03;82.55;96273.80;105691;1253;61067;-25
2023/11/24 09:20:45;;;;;;;1.20;0.50;;;;;;;3.79;82.45;96259.20;105737;1256;75426;-25
2023/11/24 09:23:12;;;;;;;0.90;0.40;;;;;;;3.38;82.86;96250.97;105497;1254;74160;-25
2023/11/24 09:25:40;;;;;;;0.70;0.50;;;;;;;3.38;82.06;96248.55;105604;1254;72564;-25
2023/11/24 09:28:08;;;;;;;0.90;0.40;;;;;;;3.58;78.96;96235.45;105592;1254;61893;-25
2023/11/24 09:30:38;;;;;;;1.20;0.40;;;;;;;3.59;78.77;96240.34;105561;1255;61202;-25
2023/11/24 09:33:05;;;;;;;2.00;0.60;;;;;;;3.03;81.01;96232.02;105920;1256;72685;-25
2023/11/24 09:35:33;;;;;;;2.40;0.50;;;;;;;2.82;84.54;96254.02;105942;1256;75408;-25
2023/11/24 09:38:00;;;;;;;0.60;0.40;;;;;;;2.90;85.34;96262.89;105842;1256;72348;-25
2023/11/24 09:40:27;;;;;;;0.90;0.40;;;;;;;3.34;83.82;96259.94;105851;1252;61083;-25
2023/11/24 09:42:54;;;;;;;0.60;0.40;;;;;;;3.59;82.51;96248.58;105596;1257;61031;-25
2023/11/24 09:45:22;;;;;;;0.90;0.30;;;;;;;3.54;80.94;96260.10;105591;1254;73934;-25
2023/11/24 09:47:51;;;;;;;1.40;0.40;;;;;;;3.49;81.17;96269.64;105634;1254;74128;-26
2023/11/24 09:50:23;;;;;;;3.70;0.50;;;;;;;3.43;82.18;96260.82;105497;1259;72551;-25
2023/11/24 09:52:55;;;;;;;1.70;0.40;;;;;;;3.66;82.00;96265.14;105705;1254;61078;-25
2023/11/24 09:55:26;;;;;;;1.20;0.40;;;;;;;4.07;79.33;96255.60;105581;1254;61081;-25
2023/11/24 09:57:55;;;;;;;1.20;0.40;;;;;;;4.12;79.60;96277.24;105539;1253;75634;-27
2023/11/24 10:00:25;;;;;;;2.40;0.70;;;;;;;4.01;79.44;96265.59;105723;1254;73517;-25
2023/11/24 10:02:52;;;;;;;1.20;0.80;;;;;;;3.94;79.70;96256.37;105711;1254;72712;-25
2023/11/24 10:05:20;;;;;;;0.60;0.30;;;;;;;3.82;80.38;96264.92;105654;1254;61179;-25
2023/11/24 10:07:50;;;;;;;1.50;0.70;;;;;;;4.14;80.03;96270.86;105623;1259;61093;-25
2023/11/24 10:10:25;;;;;;;0.50;0.50;;;;;;;4.54;77.93;96254.66;105329;1260;73886;-26
2023/11/24 10:12:53;;;;;;;0.80;0.50;;;;;;;4.53;77.29;96255.71;105699;1254;73276;-27
2023/11/24 10:15:21;;;;;;;1.10;0.40;;;;;;;4.48;77.60;96259.27;105690;1254;73460;-27
2023/11/24 10:17:48;;;;;;;2.10;0.70;;;;;;;4.52;77.49;96254.36;105692;1255;61041;-27
2023/11/24 10:20:22;;;;;;;1.00;0.60;;;;;;;4.57;75.92;96250.11;105880;1256;61178;-27
2023/11/24 10:22:52;;;;;;;1.30;0.60;;;;;;;4.64;75.63;96259.68;105687;1259;73799;-27
2023/11/24 10:25:20;;;;;;;0.90;0.50;;;;;;;4.97;74.54;96251.87;105671;1254;74347;-27
2023/11/24 10:27:47;;;;;;;1.30;0.40;;;;;;;4.89;74.57;96247.23;105646;1259;71134;-27
2023/11/24 10:30:17;;;;;;;1.40;0.70;;;;;;;4.70;75.50;96245.70;105619;1252;61139;-27
2023/11/24 10:32:48;;;;;;;1.20;0.40;;;;;;;4.60;76.04;96241.09;105722;1259;61058;-27
2023/11/24 10:35:15;;;;;;;0.70;0.40;;;;;;;4.48;76.56;96252.45;105893;1254;75629;-27
2023/11/24 10:37:44;;;;;;;1.20;0.60;;;;;;;4.68;76.18;96246.70;105673;1254;76283;-27
2023/11/24 10:40:14;;;;;;;1.60;0.60;;;;;;;5.17;74.35;96241.23;105643;1253;72781;-27
2023/11/24 10:42:47;;;;;;;1.20;0.60;;;;;;;5.70;72.10;96244.83;105501;1254;61210;-27
2023/11/24 10:45:19;;;;;;;2.20;0.60;;;;;;;5.98;70.29;96233.66;105694;1252;61145;-26
2023/11/24 10:47:56;;;;;;;2.00;0.70;;;;;;;5.85;71.07;96236.52;105698;1254;75351;-26
2023/11/24 10:50:27;;;;;;;3.50;1.20;;;;;;;5.62;71.41;96221.80;105921;1256;74847;-27
2023/11/24 10:53:27;;;;;;;2.10;0.80;;;;;;;5.41;71.85;96214.20;105710;1254;72383;-26
2023/11/24 10:55:54;;;;;;;1.80;0.80;;;;;;;5.22;72.54;96217.55;105821;1254;61332;-27
2023/11/24 10:58:22;;;;;;;1.20;0.60;;;;;;;5.02;73.16;96211.04;105687;1259;61177;-27
2023/11/24 11:00:49;;;;;;;2.20;0.70;;;;;;;4.87;74.87;96218.88;105623;1254;75381;-27
2023/11/24 11:03:17;;;;;;;2.00;0.80;;;;;;;4.88;74.92;96223.70;105679;1254;76316;-27
2023/11/24 11:06:29;;;;;;;2.00;0.80;;;;;;;4.95;71.16;96198.06;105893;1253;73957;-27
2023/11/24 11:09:19;;;;;;;1.80;0.80;;;;;;;5.15;71.12;96209.82;105581;1254;61150;-26
2023/11/24 11:12:19;;;;;;;1.90;0.70;;;;;;;5.34;71.92;96215.08;105727;1258;61186;-26
2023/11/24 11:14:46;;;;;;;2.50;1.00;;;;;;;5.19;71.48;96198.27;105716;1254;73636;-26
2023/11/24 11:17:15;;;;;;;0.60;0.60;;;;;;;4.96;70.66;96191.87;105560;1254;76202;-26
2023/11/24 11:19:59;;;;;;;1.30;0.80;;;;;;;4.80;69.85;96175.35;105581;1259;72510;-26
2023/11/24 11:22:33;;;;;;;2.80;1.10;;;;;;;4.59;69.80;96184.42;105682;1254;61113;-26
2023/11/24 11:25:13;;;;;;;;;;;;;;;4.54;70.86;96201.92;105668;1253;62342;-26
2023/11/24 11:27:43;;;;;;;1.50;0.80;;;;;;;4.54;70.60;96200.59;105653;1254;75986;-26
2023/11/24 11:30:18;;;;;;;1.20;0.70;;;;;;;4.54;70.73;96201.76;105867;1254;74370;-26
2023/11/24 11:32:46;;;;;;;1.10;0.70;;;;;;;4.85;70.05;96195.82;105615;1254;74338;-26
2023/11/24 11:35:19;;;;;;;2.40;0.80;;;;;;;5.33;67.15;96208.80;105669;1254;62084;-26
2023/11/24 11:37:53;;;;;;;2.60;0.90;;;;;;;5.25;66.06;96199.16;105687;1259;61093;-27
2023/11/24 11:40:22;;;;;;;2.70;1.00;;;;;;;5.18;66.13;96196.25;105696;1254;73877;-26